Idaho Falls, ID

4:42 PM MST on February 10, 2016 (GMT -0700)
Fanning | | Change Station
CLOSE
Current Station
Airport
Location: Idaho Falls,
Elevation: 4741 ft
Nearby Weather Stations

Elev 4741 ft 43.51 °N, 112.07 °W | Updated 49 minutes ago

Clear
Clear
25 °F
Feels Like 18 °F
N
6
Wind Variable Wind from NNW

Today
High -- | Low -- °F
--% Chance of Precip.
Yesterday
High -- | Low -- °F
Precip. -- in
Pressure 30.57 in
Visibility 10.0 miles
Clouds Clear
Windchill 18 °F
Dew Point 21 °F
Humidity 85%
Rainfall 0.00 in
Snow Depth Not available.
7:34 AM 5:51 PM
Waxing Crescent, 8% visible
METAR KIDA 102253Z 34005KT 10SM CLR M04/M06 A3040 RMK AO2 SLP352 T10391061
Pressure 30.57 in
Visibility 10.0 miles
Clouds Clear
Windchill 18 °F
Dew Point 21 °F
Humidity 85%
Rainfall 0.00 in
Snow Depth Not available.
7:34 AM 5:51 PM
Waxing Crescent, 8% visible
METAR KIDA 102253Z 34005KT 10SM CLR M04/M06 A3040 RMK AO2 SLP352 T10391061

10-Day Weather Forecast

Almanac

Astronomy

Feb. 10, 2016 Rise Set
Actual Time
Civil Twilight
Nautical Twilight
Astronomical Twilight
Moon
Length of Visible Light
Length of Day
Tomorrow will be .
, % of the Moon is Illuminated

Today's Extremes

State Highs State Lows

Community

WunderPhotos

Upload Photos

1,891,935 photos uploaded!

WunderBlog® & News

Nearby

Air Quality

  Air Quality AQ Index Pollutant
Not available.

Snow Depth

Station Depth Elevation

Earthquake Activity

City Distance Mag. Time & Date
Minimum magnitude displayed is 2.5.

Coastal Water Temperatures

Place Temperature

Stations

Nearby Weather Stations

Station Location Temp. Windchill Dew Point Humidity Wind Precip. Elev Updated Type
                   

Watches & Warnings

There are currently no watches in effect.